Terminal Aerodrome Forecast
Issued by NWS Tallahassee, FL

Current Version | Previous Version | Text Only | Print | Product List | Glossary On
Versions: 1 2 3 4 5 6 7 8 9 10 11 12 13 14 15 16 17 18
000
FTUS42 KTAE 232320
TAFTLH
TAF
KTLH 232320Z 2400/2424 19006KT P6SM SCT030
     FM240700 00000KT 1/2SM FG BKN004
     FM241400 25007KT P6SM BKN035=

USA.gov is the U.S. government's official web portal to all federal, state and local government web resources and services.